sensor_id;sensor_type;location;lat;lon;timestamp;temperature;humidity
48806;DHT22;34625;47.176;27.548;2023-02-27T00:00:41;22.20;64.40
48806;DHT22;34625;47.176;27.548;2023-02-27T00:03:07;22.10;64.00
48806;DHT22;34625;47.176;27.548;2023-02-27T00:05:33;22.10;64.10
48806;DHT22;34625;47.176;27.548;2023-02-27T00:07:59;22.20;64.00
48806;DHT22;34625;47.176;27.548;2023-02-27T00:10:25;22.20;63.60
48806;DHT22;34625;47.176;27.548;2023-02-27T00:12:51;22.10;63.60
48806;DHT22;34625;47.176;27.548;2023-02-27T00:15:19;22.00;63.40
48806;DHT22;34625;47.176;27.548;2023-02-27T00:17:45;22.00;63.00
48806;DHT22;34625;47.176;27.548;2023-02-27T00:20:13;22.10;63.70
48806;DHT22;34625;47.176;27.548;2023-02-27T00:22:40;22.10;63.60
48806;DHT22;34625;47.176;27.548;2023-02-27T00:25:07;22.10;63.30
48806;DHT22;34625;47.176;27.548;2023-02-27T00:27:33;22.10;63.20
48806;DHT22;34625;47.176;27.548;2023-02-27T00:30:02;22.00;63.40
48806;DHT22;34625;47.176;27.548;2023-02-27T00:32:30;22.00;63.30
48806;DHT22;34625;47.176;27.548;2023-02-27T00:34:56;21.90;62.90
48806;DHT22;34625;47.176;27.548;2023-02-27T00:37:22;21.90;62.90
48806;DHT22;34625;47.176;27.548;2023-02-27T00:39:48;21.90;63.00
48806;DHT22;34625;47.176;27.548;2023-02-27T00:42:15;21.70;62.60
48806;DHT22;34625;47.176;27.548;2023-02-27T00:44:41;21.80;63.00
48806;DHT22;34625;47.176;27.548;2023-02-27T00:47:07;21.80;62.80
48806;DHT22;34625;47.176;27.548;2023-02-27T00:49:33;21.90;63.00
48806;DHT22;34625;47.176;27.548;2023-02-27T00:51:59;21.90;62.80
48806;DHT22;34625;47.176;27.548;2023-02-27T00:54:25;21.80;62.50
48806;DHT22;34625;47.176;27.548;2023-02-27T00:56:51;21.90;62.90
48806;DHT22;34625;47.176;27.548;2023-02-27T00:59:17;21.90;62.40
48806;DHT22;34625;47.176;27.548;2023-02-27T01:01:44;21.80;62.60
48806;DHT22;34625;47.176;27.548;2023-02-27T01:04:10;21.90;62.30
48806;DHT22;34625;47.176;27.548;2023-02-27T01:06:36;21.90;61.90
48806;DHT22;34625;47.176;27.548;2023-02-27T01:09:02;21.90;62.20
48806;DHT22;34625;47.176;27.548;2023-02-27T01:11:29;21.80;61.50
48806;DHT22;34625;47.176;27.548;2023-02-27T01:13:55;21.90;61.60
48806;DHT22;34625;47.176;27.548;2023-02-27T01:16:22;22.00;61.60
48806;DHT22;34625;47.176;27.548;2023-02-27T01:18:48;22.00;61.50
48806;DHT22;34625;47.176;27.548;2023-02-27T01:21:14;21.80;61.70
48806;DHT22;34625;47.176;27.548;2023-02-27T01:23:41;21.90;61.80
48806;DHT22;34625;47.176;27.548;2023-02-27T01:26:07;21.80;61.80
48806;DHT22;34625;47.176;27.548;2023-02-27T01:28:33;21.70;61.70
48806;DHT22;34625;47.176;27.548;2023-02-27T01:30:59;21.80;61.60
48806;DHT22;34625;47.176;27.548;2023-02-27T01:33:25;21.70;61.60
48806;DHT22;34625;47.176;27.548;2023-02-27T01:35:51;21.70;61.80
48806;DHT22;34625;47.176;27.548;2023-02-27T01:38:17;21.60;61.40
48806;DHT22;34625;47.176;27.548;2023-02-27T01:40:43;21.70;61.60
48806;DHT22;34625;47.176;27.548;2023-02-27T01:43:17;21.70;61.50
48806;DHT22;34625;47.176;27.548;2023-02-27T01:45:44;21.70;61.80
48806;DHT22;34625;47.176;27.548;2023-02-27T01:48:28;21.70;61.60
48806;DHT22;34625;47.176;27.548;2023-02-27T01:51:00;21.60;61.20
48806;DHT22;34625;47.176;27.548;2023-02-27T01:53:29;21.50;61.40
48806;DHT22;34625;47.176;27.548;2023-02-27T01:55:59;21.70;61.30
48806;DHT22;34625;47.176;27.548;2023-02-27T01:58:27;21.70;61.10
48806;DHT22;34625;47.176;27.548;2023-02-27T02:00:54;21.70;61.00
48806;DHT22;34625;47.176;27.548;2023-02-27T02:04:11;21.70;60.80
48806;DHT22;34625;47.176;27.548;2023-02-27T02:06:35;21.80;60.80
48806;DHT22;34625;47.176;27.548;2023-02-27T02:09:02;21.70;60.70
48806;DHT22;34625;47.176;27.548;2023-02-27T02:11:29;21.80;60.70
48806;DHT22;34625;47.176;27.548;2023-02-27T02:13:59;21.80;60.70
48806;DHT22;34625;47.176;27.548;2023-02-27T02:17:23;21.70;60.60
48806;DHT22;34625;47.176;27.548;2023-02-27T02:40:38;21.60;60.30
48806;DHT22;34625;47.176;27.548;2023-02-27T02:43:22;21.50;60.50
48806;DHT22;34625;47.176;27.548;2023-02-27T02:48:56;21.50;60.10
48806;DHT22;34625;47.176;27.548;2023-02-27T02:57:06;21.50;60.00
48806;DHT22;34625;47.176;27.548;2023-02-27T02:59:56;21.60;60.10
48806;DHT22;34625;47.176;27.548;2023-02-27T03:02:36;21.70;60.20
48806;DHT22;34625;47.176;27.548;2023-02-27T03:05:14;21.60;59.90
48806;DHT22;34625;47.176;27.548;2023-02-27T03:10:25;21.60;59.60
48806;DHT22;34625;47.176;27.548;2023-02-27T03:13:07;21.60;59.70
48806;DHT22;34625;47.176;27.548;2023-02-27T03:15:44;21.50;59.70
48806;DHT22;34625;47.176;27.548;2023-02-27T03:18:36;21.50;59.90
48806;DHT22;34625;47.176;27.548;2023-02-27T03:21:12;21.50;59.90
48806;DHT22;34625;47.176;27.548;2023-02-27T03:23:45;21.40;59.70
48806;DHT22;34625;47.176;27.548;2023-02-27T03:26:19;21.40;59.80
48806;DHT22;34625;47.176;27.548;2023-02-27T03:28:58;21.50;59.70
48806;DHT22;34625;47.176;27.548;2023-02-27T03:31:43;21.50;59.60
48806;DHT22;34625;47.176;27.548;2023-02-27T03:34:29;21.40;59.50
48806;DHT22;34625;47.176;27.548;2023-02-27T03:40:23;21.40;59.30
48806;DHT22;34625;47.176;27.548;2023-02-27T03:46:00;21.40;59.60
48806;DHT22;34625;47.176;27.548;2023-02-27T03:48:28;21.30;59.30
48806;DHT22;34625;47.176;27.548;2023-02-27T03:50:55;21.40;59.10
48806;DHT22;34625;47.176;27.548;2023-02-27T03:53:30;21.40;59.10
48806;DHT22;34625;47.176;27.548;2023-02-27T03:56:00;21.40;59.20
48806;DHT22;34625;47.176;27.548;2023-02-27T03:58:27;21.50;59.10
48806;DHT22;34625;47.176;27.548;2023-02-27T04:00:54;21.50;59.10
48806;DHT22;34625;47.176;27.548;2023-02-27T04:03:21;21.40;58.90
48806;DHT22;34625;47.176;27.548;2023-02-27T04:05:47;21.50;59.00
48806;DHT22;34625;47.176;27.548;2023-02-27T04:11:33;21.60;58.70
48806;DHT22;34625;47.176;27.548;2023-02-27T04:27:29;21.40;58.60
48806;DHT22;34625;47.176;27.548;2023-02-27T04:30:20;21.30;58.70
48806;DHT22;34625;47.176;27.548;2023-02-27T04:33:13;21.40;58.70
48806;DHT22;34625;47.176;27.548;2023-02-27T04:35:49;21.50;58.50
48806;DHT22;34625;47.176;27.548;2023-02-27T04:38:25;21.50;58.40
48806;DHT22;34625;47.176;27.548;2023-02-27T04:41:00;21.50;58.30
48806;DHT22;34625;47.176;27.548;2023-02-27T04:43:28;21.60;58.20
48806;DHT22;34625;47.176;27.548;2023-02-27T04:45:58;21.60;58.40
48806;DHT22;34625;47.176;27.548;2023-02-27T04:48:35;21.70;58.40
48806;DHT22;34625;47.176;27.548;2023-02-27T04:51:11;21.80;58.20
48806;DHT22;34625;47.176;27.548;2023-02-27T04:53:49;21.60;58.20
48806;DHT22;34625;47.176;27.548;2023-02-27T04:56:28;21.50;58.30
48806;DHT22;34625;47.176;27.548;2023-02-27T04:59:09;21.70;58.20
48806;DHT22;34625;47.176;27.548;2023-02-27T05:01:40;21.90;57.90
48806;DHT22;34625;47.176;27.548;2023-02-27T05:04:09;21.80;57.50
48806;DHT22;34625;47.176;27.548;2023-02-27T05:06:39;21.90;57.60
48806;DHT22;34625;47.176;27.548;2023-02-27T05:09:17;21.90;57.00
48806;DHT22;34625;47.176;27.548;2023-02-27T05:12:10;21.90;57.20
48806;DHT22;34625;47.176;27.548;2023-02-27T05:17:22;22.80;64.70
48806;DHT22;34625;47.176;27.548;2023-02-27T05:19:50;23.00;65.10
48806;DHT22;34625;47.176;27.548;2023-02-27T05:28:12;22.50;59.80
48806;DHT22;34625;47.176;27.548;2023-02-27T05:30:55;22.40;60.40
48806;DHT22;34625;47.176;27.548;2023-02-27T05:37:06;22.20;59.80
48806;DHT22;34625;47.176;27.548;2023-02-27T05:39:36;22.10;61.20
48806;DHT22;34625;47.176;27.548;2023-02-27T05:42:07;22.10;61.60
48806;DHT22;34625;47.176;27.548;2023-02-27T05:44:38;21.90;61.70
48806;DHT22;34625;47.176;27.548;2023-02-27T05:47:12;22.00;62.10
48806;DHT22;34625;47.176;27.548;2023-02-27T05:49:44;22.00;62.20
48806;DHT22;34625;47.176;27.548;2023-02-27T05:52:16;21.90;62.30
48806;DHT22;34625;47.176;27.548;2023-02-27T05:57:21;22.20;60.90
48806;DHT22;34625;47.176;27.548;2023-02-27T05:59:56;22.30;58.70
48806;DHT22;34625;47.176;27.548;2023-02-27T06:02:24;22.50;56.90
48806;DHT22;34625;47.176;27.548;2023-02-27T06:04:50;22.60;55.00
48806;DHT22;34625;47.176;27.548;2023-02-27T06:07:17;22.50;55.70
48806;DHT22;34625;47.176;27.548;2023-02-27T06:09:44;22.70;58.20
48806;DHT22;34625;47.176;27.548;2023-02-27T06:12:10;22.60;51.00
48806;DHT22;34625;47.176;27.548;2023-02-27T06:14:37;22.50;50.10
48806;DHT22;34625;47.176;27.548;2023-02-27T06:17:03;22.60;49.70
48806;DHT22;34625;47.176;27.548;2023-02-27T06:19:29;22.60;49.20
48806;DHT22;34625;47.176;27.548;2023-02-27T06:21:55;22.50;49.40
48806;DHT22;34625;47.176;27.548;2023-02-27T06:24:21;22.60;60.50
48806;DHT22;34625;47.176;27.548;2023-02-27T06:26:47;22.80;59.30
48806;DHT22;34625;47.176;27.548;2023-02-27T06:29:13;22.90;58.20
48806;DHT22;34625;47.176;27.548;2023-02-27T06:31:39;23.00;58.40
48806;DHT22;34625;47.176;27.548;2023-02-27T06:34:05;23.00;58.40
48806;DHT22;34625;47.176;27.548;2023-02-27T06:36:31;23.00;58.60
48806;DHT22;34625;47.176;27.548;2023-02-27T06:38:57;23.10;61.40
48806;DHT22;34625;47.176;27.548;2023-02-27T06:41:24;23.10;57.60
48806;DHT22;34625;47.176;27.548;2023-02-27T06:43:50;23.20;56.10
48806;DHT22;34625;47.176;27.548;2023-02-27T06:46:16;23.20;55.00
48806;DHT22;34625;47.176;27.548;2023-02-27T06:48:42;23.10;53.40
48806;DHT22;34625;47.176;27.548;2023-02-27T06:51:08;23.10;52.80
48806;DHT22;34625;47.176;27.548;2023-02-27T06:53:34;23.00;52.20
48806;DHT22;34625;47.176;27.548;2023-02-27T06:55:59;23.10;52.90
48806;DHT22;34625;47.176;27.548;2023-02-27T06:58:25;23.10;53.00
48806;DHT22;34625;47.176;27.548;2023-02-27T07:00:51;23.10;53.10
48806;DHT22;34625;47.176;27.548;2023-02-27T07:03:17;23.10;53.10
48806;DHT22;34625;47.176;27.548;2023-02-27T07:05:43;23.10;53.20
48806;DHT22;34625;47.176;27.548;2023-02-27T07:08:10;23.00;53.30
48806;DHT22;34625;47.176;27.548;2023-02-27T07:10:36;23.00;53.10
48806;DHT22;34625;47.176;27.548;2023-02-27T07:13:02;23.10;53.30
48806;DHT22;34625;47.176;27.548;2023-02-27T07:15:28;23.00;53.10
48806;DHT22;34625;47.176;27.548;2023-02-27T07:17:54;22.90;53.30
48806;DHT22;34625;47.176;27.548;2023-02-27T07:20:20;22.80;53.70
48806;DHT22;34625;47.176;27.548;2023-02-27T07:22:46;22.60;55.80
48806;DHT22;34625;47.176;27.548;2023-02-27T07:25:12;22.50;56.20
48806;DHT22;34625;47.176;27.548;2023-02-27T07:27:38;22.50;56.90
48806;DHT22;34625;47.176;27.548;2023-02-27T07:30:04;22.40;57.60
48806;DHT22;34625;47.176;27.548;2023-02-27T07:32:30;22.40;57.70
48806;DHT22;34625;47.176;27.548;2023-02-27T07:34:56;22.50;56.80
48806;DHT22;34625;47.176;27.548;2023-02-27T07:37:22;22.50;56.70
48806;DHT22;34625;47.176;27.548;2023-02-27T07:39:48;22.40;57.20
48806;DHT22;34625;47.176;27.548;2023-02-27T07:42:14;22.30;57.80
48806;DHT22;34625;47.176;27.548;2023-02-27T07:44:40;22.40;58.50
48806;DHT22;34625;47.176;27.548;2023-02-27T07:47:06;22.30;58.40
48806;DHT22;34625;47.176;27.548;2023-02-27T07:49:32;22.30;58.40
48806;DHT22;34625;47.176;27.548;2023-02-27T07:51:58;22.30;58.80
48806;DHT22;34625;47.176;27.548;2023-02-27T07:54:24;22.20;59.10
48806;DHT22;34625;47.176;27.548;2023-02-27T07:56:50;22.20;58.50
48806;DHT22;34625;47.176;27.548;2023-02-27T07:59:16;22.20;59.80
48806;DHT22;34625;47.176;27.548;2023-02-27T08:01:42;22.20;60.30
48806;DHT22;34625;47.176;27.548;2023-02-27T08:04:08;22.10;60.60
48806;DHT22;34625;47.176;27.548;2023-02-27T08:06:34;22.10;61.00
48806;DHT22;34625;47.176;27.548;2023-02-27T08:09:00;22.30;60.90
48806;DHT22;34625;47.176;27.548;2023-02-27T08:11:26;22.20;61.10
48806;DHT22;34625;47.176;27.548;2023-02-27T08:13:52;22.10;61.20
48806;DHT22;34625;47.176;27.548;2023-02-27T08:16:17;22.30;61.10
48806;DHT22;34625;47.176;27.548;2023-02-27T08:18:43;22.10;61.20
48806;DHT22;34625;47.176;27.548;2023-02-27T08:21:09;22.10;61.80
48806;DHT22;34625;47.176;27.548;2023-02-27T08:23:35;22.10;62.30
48806;DHT22;34625;47.176;27.548;2023-02-27T08:26:02;22.20;63.40
48806;DHT22;34625;47.176;27.548;2023-02-27T08:28:28;22.30;63.20
48806;DHT22;34625;47.176;27.548;2023-02-27T08:30:55;22.30;63.70
48806;DHT22;34625;47.176;27.548;2023-02-27T08:33:22;22.30;63.90
48806;DHT22;34625;47.176;27.548;2023-02-27T08:35:48;22.20;64.70
48806;DHT22;34625;47.176;27.548;2023-02-27T08:38:14;22.30;64.70
48806;DHT22;34625;47.176;27.548;2023-02-27T08:40:40;22.30;61.60
48806;DHT22;34625;47.176;27.548;2023-02-27T08:43:06;22.20;64.60
48806;DHT22;34625;47.176;27.548;2023-02-27T08:45:32;22.30;66.00
48806;DHT22;34625;47.176;27.548;2023-02-27T08:47:58;22.30;66.40
48806;DHT22;34625;47.176;27.548;2023-02-27T08:50:24;22.30;65.20
48806;DHT22;34625;47.176;27.548;2023-02-27T08:52:50;22.40;65.70
48806;DHT22;34625;47.176;27.548;2023-02-27T08:55:17;22.10;66.00
48806;DHT22;34625;47.176;27.548;2023-02-27T08:57:43;22.30;57.80
48806;DHT22;34625;47.176;27.548;2023-02-27T09:00:10;22.80;53.80
48806;DHT22;34625;47.176;27.548;2023-02-27T09:02:39;22.90;55.00
48806;DHT22;34625;47.176;27.548;2023-02-27T09:05:06;23.10;48.40
48806;DHT22;34625;47.176;27.548;2023-02-27T09:07:32;23.20;51.70
48806;DHT22;34625;47.176;27.548;2023-02-27T09:09:59;23.40;52.90
48806;DHT22;34625;47.176;27.548;2023-02-27T09:12:25;23.60;51.10
48806;DHT22;34625;47.176;27.548;2023-02-27T09:14:51;23.70;53.80
48806;DHT22;34625;47.176;27.548;2023-02-27T09:17:17;23.80;58.90
48806;DHT22;34625;47.176;27.548;2023-02-27T09:19:43;23.90;48.40
48806;DHT22;34625;47.176;27.548;2023-02-27T09:22:09;23.90;47.70
48806;DHT22;34625;47.176;27.548;2023-02-27T09:24:35;23.90;48.10
48806;DHT22;34625;47.176;27.548;2023-02-27T09:27:01;24.10;49.50
48806;DHT22;34625;47.176;27.548;2023-02-27T09:29:27;23.90;45.50
48806;DHT22;34625;47.176;27.548;2023-02-27T09:31:53;23.90;45.10
48806;DHT22;34625;47.176;27.548;2023-02-27T09:34:19;24.10;47.10
48806;DHT22;34625;47.176;27.548;2023-02-27T09:36:45;24.10;44.90
48806;DHT22;34625;47.176;27.548;2023-02-27T09:39:11;24.10;47.80
48806;DHT22;34625;47.176;27.548;2023-02-27T09:42:07;24.10;44.00
48806;DHT22;34625;47.176;27.548;2023-02-27T09:44:39;24.10;44.90
48806;DHT22;34625;47.176;27.548;2023-02-27T09:47:11;24.20;48.50
48806;DHT22;34625;47.176;27.548;2023-02-27T09:50:03;24.40;45.70
48806;DHT22;34625;47.176;27.548;2023-02-27T09:52:31;24.30;56.80
48806;DHT22;34625;47.176;27.548;2023-02-27T09:54:57;24.30;57.20
48806;DHT22;34625;47.176;27.548;2023-02-27T09:57:39;24.30;57.70
48806;DHT22;34625;47.176;27.548;2023-02-27T10:00:31;24.40;51.90
48806;DHT22;34625;47.176;27.548;2023-02-27T10:06:09;24.50;58.40
48806;DHT22;34625;47.176;27.548;2023-02-27T10:17:03;24.10;59.30
48806;DHT22;34625;47.176;27.548;2023-02-27T10:19:33;24.00;59.60
48806;DHT22;34625;47.176;27.548;2023-02-27T10:22:04;23.90;60.20
48806;DHT22;34625;47.176;27.548;2023-02-27T10:24:37;23.80;60.80
48806;DHT22;34625;47.176;27.548;2023-02-27T10:27:05;23.70;61.70
48806;DHT22;34625;47.176;27.548;2023-02-27T10:29:40;23.50;62.10
48806;DHT22;34625;47.176;27.548;2023-02-27T10:32:12;23.40;62.60
48806;DHT22;34625;47.176;27.548;2023-02-27T10:34:41;23.50;65.70
48806;DHT22;34625;47.176;27.548;2023-02-27T10:37:12;23.40;67.80
48806;DHT22;34625;47.176;27.548;2023-02-27T10:39:50;23.30;69.10
48806;DHT22;34625;47.176;27.548;2023-02-27T10:42:17;23.30;70.40
48806;DHT22;34625;47.176;27.548;2023-02-27T10:44:43;23.70;53.70
48806;DHT22;34625;47.176;27.548;2023-02-27T10:47:15;23.90;53.80
48806;DHT22;34625;47.176;27.548;2023-02-27T10:49:42;24.10;57.20
48806;DHT22;34625;47.176;27.548;2023-02-27T10:52:11;24.40;59.20
48806;DHT22;34625;47.176;27.548;2023-02-27T10:54:39;24.50;51.70
48806;DHT22;34625;47.176;27.548;2023-02-27T11:00:06;24.80;55.90
48806;DHT22;34625;47.176;27.548;2023-02-27T11:02:48;24.80;53.10
48806;DHT22;34625;47.176;27.548;2023-02-27T11:05:22;25.00;61.80
48806;DHT22;34625;47.176;27.548;2023-02-27T11:07:48;24.90;51.90
48806;DHT22;34625;47.176;27.548;2023-02-27T11:10:24;24.80;52.10
48806;DHT22;34625;47.176;27.548;2023-02-27T11:13:03;24.80;50.90
48806;DHT22;34625;47.176;27.548;2023-02-27T11:15:33;24.90;49.70
48806;DHT22;34625;47.176;27.548;2023-02-27T11:18:38;24.90;52.20
48806;DHT22;34625;47.176;27.548;2023-02-27T11:21:10;24.80;48.50
48806;DHT22;34625;47.176;27.548;2023-02-27T11:23:36;24.90;47.50
48806;DHT22;34625;47.176;27.548;2023-02-27T11:26:15;24.80;44.70
48806;DHT22;34625;47.176;27.548;2023-02-27T11:28:42;24.90;47.60
48806;DHT22;34625;47.176;27.548;2023-02-27T11:31:17;24.70;45.10
48806;DHT22;34625;47.176;27.548;2023-02-27T11:33:53;24.80;60.70
48806;DHT22;34625;47.176;27.548;2023-02-27T11:36:21;24.90;60.80
48806;DHT22;34625;47.176;27.548;2023-02-27T11:38:54;24.90;60.40
48806;DHT22;34625;47.176;27.548;2023-02-27T11:41:32;24.90;60.30
48806;DHT22;34625;47.176;27.548;2023-02-27T11:44:01;24.90;61.40
48806;DHT22;34625;47.176;27.548;2023-02-27T11:46:27;24.70;61.70
48806;DHT22;34625;47.176;27.548;2023-02-27T11:49:02;24.70;62.50
48806;DHT22;34625;47.176;27.548;2023-02-27T11:57:02;24.40;64.30
48806;DHT22;34625;47.176;27.548;2023-02-27T11:59:49;24.30;64.10
48806;DHT22;34625;47.176;27.548;2023-02-27T12:02:24;24.20;64.50
48806;DHT22;34625;47.176;27.548;2023-02-27T12:10:17;23.90;64.80
48806;DHT22;34625;47.176;27.548;2023-02-27T12:15:43;23.70;65.30
48806;DHT22;34625;47.176;27.548;2023-02-27T12:21:16;23.70;58.20
48806;DHT22;34625;47.176;27.548;2023-02-27T12:26:26;23.90;62.90
48806;DHT22;34625;47.176;27.548;2023-02-27T12:29:24;23.80;63.40
48806;DHT22;34625;47.176;27.548;2023-02-27T12:32:05;23.80;64.00
48806;DHT22;34625;47.176;27.548;2023-02-27T12:37:30;23.60;64.70
48806;DHT22;34625;47.176;27.548;2023-02-27T12:40:00;23.50;64.60
48806;DHT22;34625;47.176;27.548;2023-02-27T12:53:53;23.40;64.20
48806;DHT22;34625;47.176;27.548;2023-02-27T13:02:59;23.50;64.50
48806;DHT22;34625;47.176;27.548;2023-02-27T13:08:36;23.40;62.50
48806;DHT22;34625;47.176;27.548;2023-02-27T13:11:49;23.40;62.80
48806;DHT22;34625;47.176;27.548;2023-02-27T13:23:07;23.10;63.80
48806;DHT22;34625;47.176;27.548;2023-02-27T13:25:37;23.00;63.00
48806;DHT22;34625;47.176;27.548;2023-02-27T13:28:07;23.10;64.10
48806;DHT22;34625;47.176;27.548;2023-02-27T13:30:39;23.00;63.90
48806;DHT22;34625;47.176;27.548;2023-02-27T13:33:36;23.00;64.10
48806;DHT22;34625;47.176;27.548;2023-02-27T13:36:20;23.00;64.60
48806;DHT22;34625;47.176;27.548;2023-02-27T13:38:49;23.00;64.70
48806;DHT22;34625;47.176;27.548;2023-02-27T13:59:23;23.00;70.80
48806;DHT22;34625;47.176;27.548;2023-02-27T14:01:54;23.00;70.10
48806;DHT22;34625;47.176;27.548;2023-02-27T14:04:23;23.00;69.60
48806;DHT22;34625;47.176;27.548;2023-02-27T14:07:01;22.90;67.60
48806;DHT22;34625;47.176;27.548;2023-02-27T14:09:37;23.00;68.10
48806;DHT22;34625;47.176;27.548;2023-02-27T14:12:06;23.00;68.60
48806;DHT22;34625;47.176;27.548;2023-02-27T14:14:51;23.00;68.30
48806;DHT22;34625;47.176;27.548;2023-02-27T14:22:42;22.90;67.80
48806;DHT22;34625;47.176;27.548;2023-02-27T14:25:17;22.90;67.50
48806;DHT22;34625;47.176;27.548;2023-02-27T14:27:49;22.90;67.20
48806;DHT22;34625;47.176;27.548;2023-02-27T14:31:06;22.90;67.60
48806;DHT22;34625;47.176;27.548;2023-02-27T14:33:46;22.90;67.50
48806;DHT22;34625;47.176;27.548;2023-02-27T14:36:20;23.00;67.30
48806;DHT22;34625;47.176;27.548;2023-02-27T14:38:47;22.90;66.90
48806;DHT22;34625;47.176;27.548;2023-02-27T14:46:49;22.60;67.70
48806;DHT22;34625;47.176;27.548;2023-02-27T14:49:32;22.80;67.60
48806;DHT22;34625;47.176;27.548;2023-02-27T14:52:22;22.60;68.20
48806;DHT22;34625;47.176;27.548;2023-02-27T14:54:50;22.80;67.20
48806;DHT22;34625;47.176;27.548;2023-02-27T14:57:21;22.80;65.20
48806;DHT22;34625;47.176;27.548;2023-02-27T14:59:50;22.80;65.20
48806;DHT22;34625;47.176;27.548;2023-02-27T15:02:28;22.60;64.80
48806;DHT22;34625;47.176;27.548;2023-02-27T15:05:14;22.60;65.50
48806;DHT22;34625;47.176;27.548;2023-02-27T15:07:45;22.70;58.20
48806;DHT22;34625;47.176;27.548;2023-02-27T15:10:23;23.00;55.40
48806;DHT22;34625;47.176;27.548;2023-02-27T15:12:51;23.30;65.20
48806;DHT22;34625;47.176;27.548;2023-02-27T15:15:20;23.80;65.90
48806;DHT22;34625;47.176;27.548;2023-02-27T15:17:46;23.80;63.50
48806;DHT22;34625;47.176;27.548;2023-02-27T15:20:33;23.80;62.60
48806;DHT22;34625;47.176;27.548;2023-02-27T15:23:17;23.70;62.50
48806;DHT22;34625;47.176;27.548;2023-02-27T15:25:45;23.70;62.50
48806;DHT22;34625;47.176;27.548;2023-02-27T15:28:35;23.60;62.40
48806;DHT22;34625;47.176;27.548;2023-02-27T15:31:02;23.40;61.20
48806;DHT22;34625;47.176;27.548;2023-02-27T15:33:31;23.20;61.20
48806;DHT22;34625;47.176;27.548;2023-02-27T15:35:57;23.10;62.50
48806;DHT22;34625;47.176;27.548;2023-02-27T15:38:30;22.90;63.90
48806;DHT22;34625;47.176;27.548;2023-02-27T15:40:57;22.90;65.10
48806;DHT22;34625;47.176;27.548;2023-02-27T15:43:25;23.00;65.20
48806;DHT22;34625;47.176;27.548;2023-02-27T15:45:52;23.00;66.80
48806;DHT22;34625;47.176;27.548;2023-02-27T15:48:19;23.00;66.40
48806;DHT22;34625;47.176;27.548;2023-02-27T15:50:54;23.00;67.20
48806;DHT22;34625;47.176;27.548;2023-02-27T15:53:24;23.00;68.40
48806;DHT22;34625;47.176;27.548;2023-02-27T15:55:54;23.20;66.60
48806;DHT22;34625;47.176;27.548;2023-02-27T16:00:59;23.40;64.70
48806;DHT22;34625;47.176;27.548;2023-02-27T16:03:31;23.60;63.80
48806;DHT22;34625;47.176;27.548;2023-02-27T16:05:59;23.70;60.10
48806;DHT22;34625;47.176;27.548;2023-02-27T16:08:26;23.70;62.50
48806;DHT22;34625;47.176;27.548;2023-02-27T16:10:55;23.70;61.20
48806;DHT22;34625;47.176;27.548;2023-02-27T16:13:31;23.60;61.70
48806;DHT22;34625;47.176;27.548;2023-02-27T16:18:51;23.40;63.30
48806;DHT22;34625;47.176;27.548;2023-02-27T16:21:23;23.20;64.00
48806;DHT22;34625;47.176;27.548;2023-02-27T16:23:50;23.30;64.50
48806;DHT22;34625;47.176;27.548;2023-02-27T16:26:31;23.10;64.90
48806;DHT22;34625;47.176;27.548;2023-02-27T16:29:14;23.10;65.10
48806;DHT22;34625;47.176;27.548;2023-02-27T16:31:51;23.00;65.10
48806;DHT22;34625;47.176;27.548;2023-02-27T16:34:32;23.00;65.60
48806;DHT22;34625;47.176;27.548;2023-02-27T16:37:02;23.00;65.80
48806;DHT22;34625;47.176;27.548;2023-02-27T16:39:29;23.00;66.10
48806;DHT22;34625;47.176;27.548;2023-02-27T16:41:57;23.00;66.60
48806;DHT22;34625;47.176;27.548;2023-02-27T16:44:24;22.90;66.60
48806;DHT22;34625;47.176;27.548;2023-02-27T16:46:54;23.00;66.50
48806;DHT22;34625;47.176;27.548;2023-02-27T16:49:28;22.90;66.80
48806;DHT22;34625;47.176;27.548;2023-02-27T16:51:55;22.90;67.00
48806;DHT22;34625;47.176;27.548;2023-02-27T16:54:22;23.00;66.70
48806;DHT22;34625;47.176;27.548;2023-02-27T16:56:49;23.00;66.60
48806;DHT22;34625;47.176;27.548;2023-02-27T17:01:54;22.90;66.40
48806;DHT22;34625;47.176;27.548;2023-02-27T17:04:21;22.80;66.40
48806;DHT22;34625;47.176;27.548;2023-02-27T17:06:47;22.80;67.30
48806;DHT22;34625;47.176;27.548;2023-02-27T17:09:13;22.80;66.80
48806;DHT22;34625;47.176;27.548;2023-02-27T17:11:39;23.00;66.80
48806;DHT22;34625;47.176;27.548;2023-02-27T17:14:05;22.90;66.40
48806;DHT22;34625;47.176;27.548;2023-02-27T17:16:31;23.00;66.30
48806;DHT22;34625;47.176;27.548;2023-02-27T17:18:57;23.00;66.40
48806;DHT22;34625;47.176;27.548;2023-02-27T17:21:23;23.00;65.20
48806;DHT22;34625;47.176;27.548;2023-02-27T17:23:49;23.00;65.60
48806;DHT22;34625;47.176;27.548;2023-02-27T17:26:15;22.90;65.50
48806;DHT22;34625;47.176;27.548;2023-02-27T17:28:41;22.80;66.00
48806;DHT22;34625;47.176;27.548;2023-02-27T17:31:08;22.70;66.30
48806;DHT22;34625;47.176;27.548;2023-02-27T17:33:34;22.70;66.80
48806;DHT22;34625;47.176;27.548;2023-02-27T17:36:05;22.50;66.80
48806;DHT22;34625;47.176;27.548;2023-02-27T17:38:32;22.60;67.00
48806;DHT22;34625;47.176;27.548;2023-02-27T17:40:58;22.40;67.00
48806;DHT22;34625;47.176;27.548;2023-02-27T17:43:24;22.40;67.10
48806;DHT22;34625;47.176;27.548;2023-02-27T17:45:51;22.30;67.30
48806;DHT22;34625;47.176;27.548;2023-02-27T17:48:17;22.30;67.30
48806;DHT22;34625;47.176;27.548;2023-02-27T17:50:44;22.30;67.60
48806;DHT22;34625;47.176;27.548;2023-02-27T17:53:10;22.20;67.70
48806;DHT22;34625;47.176;27.548;2023-02-27T17:55:38;22.20;67.70
48806;DHT22;34625;47.176;27.548;2023-02-27T17:58:04;22.20;68.50
48806;DHT22;34625;47.176;27.548;2023-02-27T18:00:30;22.20;68.00
48806;DHT22;34625;47.176;27.548;2023-02-27T18:02:56;22.00;65.70
48806;DHT22;34625;47.176;27.548;2023-02-27T18:05:22;22.10;68.70
48806;DHT22;34625;47.176;27.548;2023-02-27T18:07:48;22.00;68.20
48806;DHT22;34625;47.176;27.548;2023-02-27T18:10:14;22.00;67.80
48806;DHT22;34625;47.176;27.548;2023-02-27T18:12:40;22.20;68.80
48806;DHT22;34625;47.176;27.548;2023-02-27T18:15:07;22.20;67.40
48806;DHT22;34625;47.176;27.548;2023-02-27T18:17:33;22.30;67.30
48806;DHT22;34625;47.176;27.548;2023-02-27T18:19:59;22.30;67.60
48806;DHT22;34625;47.176;27.548;2023-02-27T18:22:25;22.30;66.90
48806;DHT22;34625;47.176;27.548;2023-02-27T18:24:53;22.30;67.30
48806;DHT22;34625;47.176;27.548;2023-02-27T18:27:19;22.40;66.60
48806;DHT22;34625;47.176;27.548;2023-02-27T18:29:50;22.30;66.70